sensor_id;sensor_type;location;lat;lon;timestamp;temperature;humidity
39847;DHT22;25517;52.422;10.782;2023-08-21T00:01:06;21.00;99.90
39847;DHT22;25517;52.422;10.782;2023-08-21T00:03:31;21.00;99.90
39847;DHT22;25517;52.422;10.782;2023-08-21T00:05:57;21.00;99.90
39847;DHT22;25517;52.422;10.782;2023-08-21T00:08:23;21.00;99.90
39847;DHT22;25517;52.422;10.782;2023-08-21T00:10:49;21.00;99.90
39847;DHT22;25517;52.422;10.782;2023-08-21T00:13:14;21.00;99.90
39847;DHT22;25517;52.422;10.782;2023-08-21T00:15:40;21.00;99.90
39847;DHT22;25517;52.422;10.782;2023-08-21T00:18:05;21.00;99.90
39847;DHT22;25517;52.422;10.782;2023-08-21T00:20:31;21.00;99.90
39847;DHT22;25517;52.422;10.782;2023-08-21T00:22:57;21.00;99.90
39847;DHT22;25517;52.422;10.782;2023-08-21T00:25:22;21.00;99.90
39847;DHT22;25517;52.422;10.782;2023-08-21T00:27:48;21.00;99.90
39847;DHT22;25517;52.422;10.782;2023-08-21T00:30:14;21.00;99.90
39847;DHT22;25517;52.422;10.782;2023-08-21T00:32:40;21.00;99.90
39847;DHT22;25517;52.422;10.782;2023-08-21T00:35:06;20.90;99.90
39847;DHT22;25517;52.422;10.782;2023-08-21T00:37:32;20.90;99.90
39847;DHT22;25517;52.422;10.782;2023-08-21T00:39:57;20.80;99.90
39847;DHT22;25517;52.422;10.782;2023-08-21T00:42:23;20.70;99.90
39847;DHT22;25517;52.422;10.782;2023-08-21T00:44:48;20.70;99.90
39847;DHT22;25517;52.422;10.782;2023-08-21T00:47:14;20.70;99.90
39847;DHT22;25517;52.422;10.782;2023-08-21T00:49:40;20.60;99.90
39847;DHT22;25517;52.422;10.782;2023-08-21T00:52:08;20.60;99.90
39847;DHT22;25517;52.422;10.782;2023-08-21T00:54:34;20.50;99.90
39847;DHT22;25517;52.422;10.782;2023-08-21T00:57:01;20.40;99.90
39847;DHT22;25517;52.422;10.782;2023-08-21T00:59:26;20.40;99.90
39847;DHT22;25517;52.422;10.782;2023-08-21T01:01:52;20.40;99.90
39847;DHT22;25517;52.422;10.782;2023-08-21T01:04:17;20.30;99.90
39847;DHT22;25517;52.422;10.782;2023-08-21T01:06:43;20.30;99.90
39847;DHT22;25517;52.422;10.782;2023-08-21T01:09:16;20.20;99.90
39847;DHT22;25517;52.422;10.782;2023-08-21T01:12:08;20.20;99.90
39847;DHT22;25517;52.422;10.782;2023-08-21T01:14:36;20.10;99.90
39847;DHT22;25517;52.422;10.782;2023-08-21T01:17:03;20.00;99.90
39847;DHT22;25517;52.422;10.782;2023-08-21T01:19:43;19.90;99.90
39847;DHT22;25517;52.422;10.782;2023-08-21T01:22:09;19.80;99.90
39847;DHT22;25517;52.422;10.782;2023-08-21T01:24:35;19.70;99.90
39847;DHT22;25517;52.422;10.782;2023-08-21T01:27:01;19.60;99.90
39847;DHT22;25517;52.422;10.782;2023-08-21T01:29:27;19.60;99.90
39847;DHT22;25517;52.422;10.782;2023-08-21T01:32:06;19.50;99.90
39847;DHT22;25517;52.422;10.782;2023-08-21T01:34:33;19.40;99.90
39847;DHT22;25517;52.422;10.782;2023-08-21T01:37:00;19.50;99.90
39847;DHT22;25517;52.422;10.782;2023-08-21T01:39:26;19.40;99.90
39847;DHT22;25517;52.422;10.782;2023-08-21T01:41:52;19.40;99.90
39847;DHT22;25517;52.422;10.782;2023-08-21T01:44:18;19.30;99.90
39847;DHT22;25517;52.422;10.782;2023-08-21T01:46:43;19.20;99.90
39847;DHT22;25517;52.422;10.782;2023-08-21T01:49:09;19.10;99.90
39847;DHT22;25517;52.422;10.782;2023-08-21T01:51:34;19.20;99.90
39847;DHT22;25517;52.422;10.782;2023-08-21T01:54:00;19.20;99.90
39847;DHT22;25517;52.422;10.782;2023-08-21T01:56:26;19.20;99.90
39847;DHT22;25517;52.422;10.782;2023-08-21T01:58:51;19.20;99.90
39847;DHT22;25517;52.422;10.782;2023-08-21T02:01:17;19.20;99.90
39847;DHT22;25517;52.422;10.782;2023-08-21T02:03:44;19.30;99.90
39847;DHT22;25517;52.422;10.782;2023-08-21T02:06:10;19.30;99.90
39847;DHT22;25517;52.422;10.782;2023-08-21T02:08:35;19.30;99.90
39847;DHT22;25517;52.422;10.782;2023-08-21T02:11:01;19.30;99.90
39847;DHT22;25517;52.422;10.782;2023-08-21T02:13:26;19.20;99.90
39847;DHT22;25517;52.422;10.782;2023-08-21T02:15:52;19.10;99.90
39847;DHT22;25517;52.422;10.782;2023-08-21T02:18:18;19.10;99.90
39847;DHT22;25517;52.422;10.782;2023-08-21T02:20:43;19.00;99.90
39847;DHT22;25517;52.422;10.782;2023-08-21T02:23:09;19.00;99.90
39847;DHT22;25517;52.422;10.782;2023-08-21T02:25:35;19.00;99.90
39847;DHT22;25517;52.422;10.782;2023-08-21T02:28:00;19.00;99.90
39847;DHT22;25517;52.422;10.782;2023-08-21T02:30:28;19.00;99.90
39847;DHT22;25517;52.422;10.782;2023-08-21T02:32:54;19.00;99.90
39847;DHT22;25517;52.422;10.782;2023-08-21T02:35:20;19.00;99.90
39847;DHT22;25517;52.422;10.782;2023-08-21T02:37:45;19.00;99.90
39847;DHT22;25517;52.422;10.782;2023-08-21T02:40:11;19.00;99.90
39847;DHT22;25517;52.422;10.782;2023-08-21T02:42:37;19.00;99.90
39847;DHT22;25517;52.422;10.782;2023-08-21T02:45:03;18.90;99.90
39847;DHT22;25517;52.422;10.782;2023-08-21T02:47:37;18.90;99.90
39847;DHT22;25517;52.422;10.782;2023-08-21T02:50:07;18.90;99.90
39847;DHT22;25517;52.422;10.782;2023-08-21T02:52:33;18.80;99.90
39847;DHT22;25517;52.422;10.782;2023-08-21T02:54:59;18.70;99.90
39847;DHT22;25517;52.422;10.782;2023-08-21T02:57:25;18.60;99.90
39847;DHT22;25517;52.422;10.782;2023-08-21T02:59:50;18.50;99.90
39847;DHT22;25517;52.422;10.782;2023-08-21T03:02:17;18.40;99.90
39847;DHT22;25517;52.422;10.782;2023-08-21T03:04:43;18.30;99.90
39847;DHT22;25517;52.422;10.782;2023-08-21T03:07:08;18.30;99.90
39847;DHT22;25517;52.422;10.782;2023-08-21T03:09:34;18.20;99.90
39847;DHT22;25517;52.422;10.782;2023-08-21T03:11:59;18.10;99.90
39847;DHT22;25517;52.422;10.782;2023-08-21T03:14:26;18.20;99.90
39847;DHT22;25517;52.422;10.782;2023-08-21T03:16:52;18.10;99.90
39847;DHT22;25517;52.422;10.782;2023-08-21T03:19:18;18.10;99.90
39847;DHT22;25517;52.422;10.782;2023-08-21T03:21:43;18.00;99.90
39847;DHT22;25517;52.422;10.782;2023-08-21T03:24:09;17.90;99.90
39847;DHT22;25517;52.422;10.782;2023-08-21T03:26:35;17.90;99.90
39847;DHT22;25517;52.422;10.782;2023-08-21T03:29:00;18.00;99.90
39847;DHT22;25517;52.422;10.782;2023-08-21T03:31:26;18.00;99.90
39847;DHT22;25517;52.422;10.782;2023-08-21T03:33:52;18.10;99.90
39847;DHT22;25517;52.422;10.782;2023-08-21T03:36:17;18.20;99.90
39847;DHT22;25517;52.422;10.782;2023-08-21T03:38:44;18.10;99.90
39847;DHT22;25517;52.422;10.782;2023-08-21T03:41:09;18.10;99.90
39847;DHT22;25517;52.422;10.782;2023-08-21T03:43:35;18.00;99.90
39847;DHT22;25517;52.422;10.782;2023-08-21T03:46:01;17.90;99.90
39847;DHT22;25517;52.422;10.782;2023-08-21T03:48:26;17.80;99.90
39847;DHT22;25517;52.422;10.782;2023-08-21T03:50:52;17.80;99.90
39847;DHT22;25517;52.422;10.782;2023-08-21T03:53:18;17.80;99.90
39847;DHT22;25517;52.422;10.782;2023-08-21T03:55:43;17.70;99.90
39847;DHT22;25517;52.422;10.782;2023-08-21T03:58:09;17.60;99.90
39847;DHT22;25517;52.422;10.782;2023-08-21T04:00:34;17.70;99.90
39847;DHT22;25517;52.422;10.782;2023-08-21T04:03:00;17.60;99.90
39847;DHT22;25517;52.422;10.782;2023-08-21T04:05:25;17.60;99.90
39847;DHT22;25517;52.422;10.782;2023-08-21T04:07:51;17.60;99.90
39847;DHT22;25517;52.422;10.782;2023-08-21T04:10:16;17.60;99.90
39847;DHT22;25517;52.422;10.782;2023-08-21T04:12:42;17.50;99.90
39847;DHT22;25517;52.422;10.782;2023-08-21T04:15:08;17.60;99.90
39847;DHT22;25517;52.422;10.782;2023-08-21T04:17:34;17.50;99.90
39847;DHT22;25517;52.422;10.782;2023-08-21T04:19:59;17.50;99.90
39847;DHT22;25517;52.422;10.782;2023-08-21T04:22:25;17.50;99.90
39847;DHT22;25517;52.422;10.782;2023-08-21T04:24:50;17.40;99.90
39847;DHT22;25517;52.422;10.782;2023-08-21T04:27:16;17.40;99.90
39847;DHT22;25517;52.422;10.782;2023-08-21T04:29:42;17.40;99.90
39847;DHT22;25517;52.422;10.782;2023-08-21T04:32:07;17.50;99.90
39847;DHT22;25517;52.422;10.782;2023-08-21T04:34:33;17.40;99.90
39847;DHT22;25517;52.422;10.782;2023-08-21T04:36:59;17.50;99.90
39847;DHT22;25517;52.422;10.782;2023-08-21T04:39:25;17.50;99.90
39847;DHT22;25517;52.422;10.782;2023-08-21T04:41:51;17.60;99.90
39847;DHT22;25517;52.422;10.782;2023-08-21T04:44:16;17.60;99.90
39847;DHT22;25517;52.422;10.782;2023-08-21T04:46:42;17.60;99.90
39847;DHT22;25517;52.422;10.782;2023-08-21T04:49:07;17.60;99.90
39847;DHT22;25517;52.422;10.782;2023-08-21T04:51:34;17.60;99.90
39847;DHT22;25517;52.422;10.782;2023-08-21T04:53:59;17.70;99.90
39847;DHT22;25517;52.422;10.782;2023-08-21T04:56:25;17.70;99.90
39847;DHT22;25517;52.422;10.782;2023-08-21T04:58:52;17.80;99.90
39847;DHT22;25517;52.422;10.782;2023-08-21T05:01:17;17.90;99.90
39847;DHT22;25517;52.422;10.782;2023-08-21T05:03:43;17.90;99.90
39847;DHT22;25517;52.422;10.782;2023-08-21T05:06:09;18.00;99.90
39847;DHT22;25517;52.422;10.782;2023-08-21T05:08:34;18.00;99.90
39847;DHT22;25517;52.422;10.782;2023-08-21T05:11:00;18.00;99.90
39847;DHT22;25517;52.422;10.782;2023-08-21T05:13:26;18.10;99.90
39847;DHT22;25517;52.422;10.782;2023-08-21T05:15:53;18.10;99.90
39847;DHT22;25517;52.422;10.782;2023-08-21T05:18:22;18.10;99.90
39847;DHT22;25517;52.422;10.782;2023-08-21T05:20:49;18.20;99.90
39847;DHT22;25517;52.422;10.782;2023-08-21T05:23:14;18.20;99.90
39847;DHT22;25517;52.422;10.782;2023-08-21T05:25:40;18.20;99.90
39847;DHT22;25517;52.422;10.782;2023-08-21T05:28:06;18.30;99.90
39847;DHT22;25517;52.422;10.782;2023-08-21T05:30:32;18.30;99.90
39847;DHT22;25517;52.422;10.782;2023-08-21T05:32:58;18.30;99.90
39847;DHT22;25517;52.422;10.782;2023-08-21T05:35:23;18.40;99.90
39847;DHT22;25517;52.422;10.782;2023-08-21T05:37:50;18.40;99.90
39847;DHT22;25517;52.422;10.782;2023-08-21T05:40:15;18.40;99.90
39847;DHT22;25517;52.422;10.782;2023-08-21T05:42:41;18.50;99.90
39847;DHT22;25517;52.422;10.782;2023-08-21T05:45:07;18.50;99.90
39847;DHT22;25517;52.422;10.782;2023-08-21T05:47:32;18.50;99.90
39847;DHT22;25517;52.422;10.782;2023-08-21T05:49:58;18.50;99.90
39847;DHT22;25517;52.422;10.782;2023-08-21T05:52:23;18.60;99.90
39847;DHT22;25517;52.422;10.782;2023-08-21T05:54:49;18.60;99.90
39847;DHT22;25517;52.422;10.782;2023-08-21T05:57:15;18.60;99.90
39847;DHT22;25517;52.422;10.782;2023-08-21T05:59:47;18.70;99.90
39847;DHT22;25517;52.422;10.782;2023-08-21T06:02:13;18.70;99.90
39847;DHT22;25517;52.422;10.782;2023-08-21T06:04:40;18.80;99.90
39847;DHT22;25517;52.422;10.782;2023-08-21T06:07:06;18.80;99.90
39847;DHT22;25517;52.422;10.782;2023-08-21T06:09:31;18.80;99.90
39847;DHT22;25517;52.422;10.782;2023-08-21T06:12:02;18.90;99.90
39847;DHT22;25517;52.422;10.782;2023-08-21T06:14:28;19.00;99.90
39847;DHT22;25517;52.422;10.782;2023-08-21T06:16:58;19.00;99.90
39847;DHT22;25517;52.422;10.782;2023-08-21T06:19:24;19.10;99.90
39847;DHT22;25517;52.422;10.782;2023-08-21T06:21:49;19.20;99.90
39847;DHT22;25517;52.422;10.782;2023-08-21T06:24:15;19.30;99.90
39847;DHT22;25517;52.422;10.782;2023-08-21T06:26:41;19.40;99.90
39847;DHT22;25517;52.422;10.782;2023-08-21T06:29:07;19.50;99.90
39847;DHT22;25517;52.422;10.782;2023-08-21T06:31:32;19.70;99.90
39847;DHT22;25517;52.422;10.782;2023-08-21T06:33:58;19.80;99.90
39847;DHT22;25517;52.422;10.782;2023-08-21T06:36:24;19.90;99.90
39847;DHT22;25517;52.422;10.782;2023-08-21T06:38:49;19.90;99.90
39847;DHT22;25517;52.422;10.782;2023-08-21T06:41:15;20.00;99.90
39847;DHT22;25517;52.422;10.782;2023-08-21T06:43:40;20.10;99.90
39847;DHT22;25517;52.422;10.782;2023-08-21T06:46:07;20.20;99.90
39847;DHT22;25517;52.422;10.782;2023-08-21T06:48:32;20.30;99.90
39847;DHT22;25517;52.422;10.782;2023-08-21T06:50:58;20.30;99.90
39847;DHT22;25517;52.422;10.782;2023-08-21T06:53:24;20.30;99.90
39847;DHT22;25517;52.422;10.782;2023-08-21T06:55:49;20.40;99.90
39847;DHT22;25517;52.422;10.782;2023-08-21T06:58:15;20.50;99.90
39847;DHT22;25517;52.422;10.782;2023-08-21T07:00:40;20.70;99.90
39847;DHT22;25517;52.422;10.782;2023-08-21T07:03:06;20.90;99.90
39847;DHT22;25517;52.422;10.782;2023-08-21T07:05:34;21.00;99.90
39847;DHT22;25517;52.422;10.782;2023-08-21T07:08:00;21.20;99.90
39847;DHT22;25517;52.422;10.782;2023-08-21T07:10:25;21.30;99.90
39847;DHT22;25517;52.422;10.782;2023-08-21T07:12:53;21.40;99.90
39847;DHT22;25517;52.422;10.782;2023-08-21T07:15:18;21.50;99.90
39847;DHT22;25517;52.422;10.782;2023-08-21T07:17:44;21.50;99.90
39847;DHT22;25517;52.422;10.782;2023-08-21T07:20:10;21.60;99.90
39847;DHT22;25517;52.422;10.782;2023-08-21T07:22:36;21.70;99.90
39847;DHT22;25517;52.422;10.782;2023-08-21T07:25:01;21.80;99.90
39847;DHT22;25517;52.422;10.782;2023-08-21T07:27:30;22.10;99.90
39847;DHT22;25517;52.422;10.782;2023-08-21T07:29:55;22.20;99.90
39847;DHT22;25517;52.422;10.782;2023-08-21T07:32:21;22.40;99.90
39847;DHT22;25517;52.422;10.782;2023-08-21T07:34:46;22.50;99.90
39847;DHT22;25517;52.422;10.782;2023-08-21T07:37:13;22.60;99.90
39847;DHT22;25517;52.422;10.782;2023-08-21T07:39:38;22.60;99.90
39847;DHT22;25517;52.422;10.782;2023-08-21T07:42:04;22.60;99.90
39847;DHT22;25517;52.422;10.782;2023-08-21T07:44:30;22.70;99.90
39847;DHT22;25517;52.422;10.782;2023-08-21T07:46:55;22.80;99.90
39847;DHT22;25517;52.422;10.782;2023-08-21T07:49:21;22.90;99.90
39847;DHT22;25517;52.422;10.782;2023-08-21T07:51:46;23.10;99.90
39847;DHT22;25517;52.422;10.782;2023-08-21T07:54:12;23.40;99.90
39847;DHT22;25517;52.422;10.782;2023-08-21T07:56:37;23.50;99.90
39847;DHT22;25517;52.422;10.782;2023-08-21T07:59:05;23.70;99.90
39847;DHT22;25517;52.422;10.782;2023-08-21T08:01:30;23.80;99.90
39847;DHT22;25517;52.422;10.782;2023-08-21T08:03:56;23.70;99.90
39847;DHT22;25517;52.422;10.782;2023-08-21T08:06:21;23.70;99.90
39847;DHT22;25517;52.422;10.782;2023-08-21T08:08:47;23.70;99.90
39847;DHT22;25517;52.422;10.782;2023-08-21T08:11:12;23.80;99.90
39847;DHT22;25517;52.422;10.782;2023-08-21T08:13:38;23.80;99.90
39847;DHT22;25517;52.422;10.782;2023-08-21T08:16:03;24.00;99.90
39847;DHT22;25517;52.422;10.782;2023-08-21T08:18:29;24.70;99.90
39847;DHT22;25517;52.422;10.782;2023-08-21T08:20:54;26.00;99.90
39847;DHT22;25517;52.422;10.782;2023-08-21T08:23:20;26.60;99.90
39847;DHT22;25517;52.422;10.782;2023-08-21T08:25:46;26.80;99.30
39847;DHT22;25517;52.422;10.782;2023-08-21T08:28:12;26.80;98.50
39847;DHT22;25517;52.422;10.782;2023-08-21T08:30:37;26.70;98.70
39847;DHT22;25517;52.422;10.782;2023-08-21T08:33:03;26.50;99.60
39847;DHT22;25517;52.422;10.782;2023-08-21T08:35:29;26.70;98.20
39847;DHT22;25517;52.422;10.782;2023-08-21T08:37:54;26.80;98.00
39847;DHT22;25517;52.422;10.782;2023-08-21T08:40:20;26.70;97.60
39847;DHT22;25517;52.422;10.782;2023-08-21T08:42:45;26.40;98.90
39847;DHT22;25517;52.422;10.782;2023-08-21T08:45:13;26.40;98.00
39847;DHT22;25517;52.422;10.782;2023-08-21T08:47:40;26.40;97.50
39847;DHT22;25517;52.422;10.782;2023-08-21T08:50:07;26.10;97.30
39847;DHT22;25517;52.422;10.782;2023-08-21T08:52:39;25.80;97.10
39847;DHT22;25517;52.422;10.782;2023-08-21T08:55:05;25.40;98.30
39847;DHT22;25517;52.422;10.782;2023-08-21T08:57:32;25.40;98.30
39847;DHT22;25517;52.422;10.782;2023-08-21T08:59:59;25.30;99.30
39847;DHT22;25517;52.422;10.782;2023-08-21T09:02:25;25.30;99.30
39847;DHT22;25517;52.422;10.782;2023-08-21T09:04:53;25.30;99.50
39847;DHT22;25517;52.422;10.782;2023-08-21T09:07:20;25.30;99.70
39847;DHT22;25517;52.422;10.782;2023-08-21T09:09:47;25.70;99.10
39847;DHT22;25517;52.422;10.782;2023-08-21T09:12:14;25.90;98.30
39847;DHT22;25517;52.422;10.782;2023-08-21T09:14:41;26.50;97.90
39847;DHT22;25517;52.422;10.782;2023-08-21T09:17:07;27.40;96.60
39847;DHT22;25517;52.422;10.782;2023-08-21T09:19:33;27.90;95.80
39847;DHT22;25517;52.422;10.782;2023-08-21T09:21:58;28.10;95.70
39847;DHT22;25517;52.422;10.782;2023-08-21T09:24:24;28.30;93.70
39847;DHT22;25517;52.422;10.782;2023-08-21T09:26:50;29.00;93.40
39847;DHT22;25517;52.422;10.782;2023-08-21T09:29:17;29.50;92.00
39847;DHT22;25517;52.422;10.782;2023-08-21T09:31:43;29.90;91.80
39847;DHT22;25517;52.422;10.782;2023-08-21T09:34:11;29.70;90.80
39847;DHT22;25517;52.422;10.782;2023-08-21T09:36:38;29.20;91.00
39847;DHT22;25517;52.422;10.782;2023-08-21T09:39:05;28.90;90.80
39847;DHT22;25517;52.422;10.782;2023-08-21T09:41:31;29.40;91.50
39847;DHT22;25517;52.422;10.782;2023-08-21T09:44:01;29.90;90.40
39847;DHT22;25517;52.422;10.782;2023-08-21T09:46:27;29.50;90.60
39847;DHT22;25517;52.422;10.782;2023-08-21T09:48:54;30.30;88.80
39847;DHT22;25517;52.422;10.782;2023-08-21T09:51:19;30.60;88.60
39847;DHT22;25517;52.422;10.782;2023-08-21T09:53:48;31.20;85.70
39847;DHT22;25517;52.422;10.782;2023-08-21T09:56:14;31.60;86.40
39847;DHT22;25517;52.422;10.782;2023-08-21T09:58:40;32.10;85.00
39847;DHT22;25517;52.422;10.782;2023-08-21T10:01:06;32.30;83.70
39847;DHT22;25517;52.422;10.782;2023-08-21T10:03:40;32.40;81.30
39847;DHT22;25517;52.422;10.782;2023-08-21T10:06:08;32.00;82.80
39847;DHT22;25517;52.422;10.782;2023-08-21T10:08:37;32.70;80.80
39847;DHT22;25517;52.422;10.782;2023-08-21T10:11:07;33.00;80.40
39847;DHT22;25517;52.422;10.782;2023-08-21T10:13:34;33.90;78.80
39847;DHT22;25517;52.422;10.782;2023-08-21T10:16:00;33.80;74.70
39847;DHT22;25517;52.422;10.782;2023-08-21T10:18:35;33.70;76.90
39847;DHT22;25517;52.422;10.782;2023-08-21T10:21:15;33.10;77.70
39847;DHT22;25517;52.422;10.782;2023-08-21T10:23:42;32.50;75.60
39847;DHT22;25517;52.422;10.782;2023-08-21T10:26:09;32.10;76.40
39847;DHT22;25517;52.422;10.782;2023-08-21T10:28:42;32.10;80.10
39847;DHT22;25517;52.422;10.782;2023-08-21T10:31:36;31.80;80.20
39847;DHT22;25517;52.422;10.782;2023-08-21T10:34:04;32.00;78.10
39847;DHT22;25517;52.422;10.782;2023-08-21T10:41:40;30.70;79.40
39847;DHT22;25517;52.422;10.782;2023-08-21T10:44:06;30.30;83.10
39847;DHT22;25517;52.422;10.782;2023-08-21T10:46:50;30.20;80.20
39847;DHT22;25517;52.422;10.782;2023-08-21T10:49:15;29.90;81.80
39847;DHT22;25517;52.422;10.782;2023-08-21T10:51:42;29.50;81.10
39847;DHT22;25517;52.422;10.782;2023-08-21T10:54:13;29.30;82.80
39847;DHT22;25517;52.422;10.782;2023-08-21T10:56:39;28.90;84.80
39847;DHT22;25517;52.422;10.782;2023-08-21T10:59:04;28.70;83.60
39847;DHT22;25517;52.422;10.782;2023-08-21T11:01:43;28.50;86.00
39847;DHT22;25517;52.422;10.782;2023-08-21T11:04:11;28.70;85.10
39847;DHT22;25517;52.422;10.782;2023-08-21T11:06:36;28.70;82.50
39847;DHT22;25517;52.422;10.782;2023-08-21T11:09:03;28.40;87.10
39847;DHT22;25517;52.422;10.782;2023-08-21T11:11:29;28.10;89.30
39847;DHT22;25517;52.422;10.782;2023-08-21T11:13:54;28.00;85.70
39847;DHT22;25517;52.422;10.782;2023-08-21T11:16:20;27.80;85.30
39847;DHT22;25517;52.422;10.782;2023-08-21T11:18:45;27.70;84.60
39847;DHT22;25517;52.422;10.782;2023-08-21T11:21:11;27.60;87.60
39847;DHT22;25517;52.422;10.782;2023-08-21T11:23:41;27.50;87.30
39847;DHT22;25517;52.422;10.782;2023-08-21T11:26:10;27.50;87.60
39847;DHT22;25517;52.422;10.782;2023-08-21T11:28:36;27.40;89.80
39847;DHT22;25517;52.422;10.782;2023-08-21T11:31:04;27.30;88.50
39847;DHT22;25517;52.422;10.782;2023-08-21T11:33:30;27.20;90.10
39847;DHT22;25517;52.422;10.782;2023-08-21T11:35:56;27.00;89.90
39847;DHT22;25517;52.422;10.782;2023-08-21T11:38:23;27.00;87.70
39847;DHT22;25517;52.422;10.782;2023-08-21T11:40:59;27.10;87.80
39847;DHT22;25517;52.422;10.782;2023-08-21T11:43:38;27.20;85.80
39847;DHT22;25517;52.422;10.782;2023-08-21T11:46:04;27.90;89.00
39847;DHT22;25517;52.422;10.782;2023-08-21T11:48:30;28.60;81.40
39847;DHT22;25517;52.422;10.782;2023-08-21T11:50:56;29.00;83.90
39847;DHT22;25517;52.422;10.782;2023-08-21T11:53:36;30.20;84.10
39847;DHT22;25517;52.422;10.782;2023-08-21T11:56:02;31.60;79.10
39847;DHT22;25517;52.422;10.782;2023-08-21T11:58:29;32.90;78.70
39847;DHT22;25517;52.422;10.782;2023-08-21T12:01:02;33.80;74.00
39847;DHT22;25517;52.422;10.782;2023-08-21T12:03:29;34.80;72.40
39847;DHT22;25517;52.422;10.782;2023-08-21T12:05:55;35.20;71.90
39847;DHT22;25517;52.422;10.782;2023-08-21T12:08:21;34.10;71.80
39847;DHT22;25517;52.422;10.782;2023-08-21T12:10:50;33.70;71.90
39847;DHT22;25517;52.422;10.782;2023-08-21T12:13:17;33.30;69.20
39847;DHT22;25517;52.422;10.782;2023-08-21T12:15:43;32.70;68.90
39847;DHT22;25517;52.422;10.782;2023-08-21T12:18:08;32.60;73.40
39847;DHT22;25517;52.422;10.782;2023-08-21T12:20:34;32.90;73.20
39847;DHT22;25517;52.422;10.782;2023-08-21T12:22:59;33.00;74.80
39847;DHT22;25517;52.422;10.782;2023-08-21T12:25:25;32.70;72.30
39847;DHT22;25517;52.422;10.782;2023-08-21T12:27:50;32.60;74.30
39847;DHT22;25517;52.422;10.782;2023-08-21T12:30:16;32.70;70.50
39847;DHT22;25517;52.422;10.782;2023-08-21T12:32:42;32.70;70.50
39847;DHT22;25517;52.422;10.782;2023-08-21T12:35:07;32.70;71.70
39847;DHT22;25517;52.422;10.782;2023-08-21T12:37:36;32.70;72.80
39847;DHT22;25517;52.422;10.782;2023-08-21T12:40:02;32.70;73.40
39847;DHT22;25517;52.422;10.782;2023-08-21T12:42:28;32.70;74.30
39847;DHT22;25517;52.422;10.782;2023-08-21T12:44:53;32.30;74.50
39847;DHT22;25517;52.422;10.782;2023-08-21T12:47:19;32.10;73.30
39847;DHT22;25517;52.422;10.782;2023-08-21T12:49:44;32.00;73.40
39847;DHT22;25517;52.422;10.782;2023-08-21T12:52:10;32.10;72.70
39847;DHT22;25517;52.422;10.782;2023-08-21T12:54:38;31.90;75.10
39847;DHT22;25517;52.422;10.782;2023-08-21T12:57:04;31.70;74.50
39847;DHT22;25517;52.422;10.782;2023-08-21T12:59:29;31.60;71.90
39847;DHT22;25517;52.422;10.782;2023-08-21T13:01:55;31.60;72.90
39847;DHT22;25517;52.422;10.782;2023-08-21T13:04:21;31.30;72.80
39847;DHT22;25517;52.422;10.782;2023-08-21T13:06:46;31.50;73.10
39847;DHT22;25517;52.422;10.782;2023-08-21T13:09:12;31.10;75.50
39847;DHT22;25517;52.422;10.782;2023-08-21T13:11:37;31.00;76.30
39847;DHT22;25517;52.422;10.782;2023-08-21T13:14:03;30.70;74.60
39847;DHT22;25517;52.422;10.782;2023-08-21T13:16:28;30.70;77.50
39847;DHT22;25517;52.422;10.782;2023-08-21T13:18:54;30.70;75.80
39847;DHT22;25517;52.422;10.782;2023-08-21T13:21:19;30.80;77.40
39847;DHT22;25517;52.422;10.782;2023-08-21T13:23:45;30.80;74.70
39847;DHT22;25517;52.422;10.782;2023-08-21T13:26:10;30.50;74.40
39847;DHT22;25517;52.422;10.782;2023-08-21T13:28:36;30.50;74.70
39847;DHT22;25517;52.422;10.782;2023-08-21T13:31:01;30.40;75.40
39847;DHT22;25517;52.422;10.782;2023-08-21T13:33:28;29.90;71.80
39847;DHT22;25517;52.422;10.782;2023-08-21T13:35:53;30.10;77.80
39847;DHT22;25517;52.422;10.782;2023-08-21T13:38:19;30.00;76.70
39847;DHT22;25517;52.422;10.782;2023-08-21T13:40:44;30.10;75.70
39847;DHT22;25517;52.422;10.782;2023-08-21T13:43:10;30.30;75.80
39847;DHT22;25517;52.422;10.782;2023-08-21T13:45:37;30.40;74.50
39847;DHT22;25517;52.422;10.782;2023-08-21T13:48:03;30.40;75.00
39847;DHT22;25517;52.422;10.782;2023-08-21T13:50:29;30.20;72.90
39847;DHT22;25517;52.422;10.782;2023-08-21T13:52:55;30.10;74.10
39847;DHT22;25517;52.422;10.782;2023-08-21T13:55:22;30.20;75.00
39847;DHT22;25517;52.422;10.782;2023-08-21T13:57:47;30.20;76.40
39847;DHT22;25517;52.422;10.782;2023-08-21T14:00:13;30.10;74.90
39847;DHT22;25517;52.422;10.782;2023-08-21T14:02:40;30.10;72.70
39847;DHT22;25517;52.422;10.782;2023-08-21T14:05:06;30.10;75.40
39847;DHT22;25517;52.422;10.782;2023-08-21T14:07:33;30.00;72.80
39847;DHT22;25517;52.422;10.782;2023-08-21T14:09:59;29.90;74.60
39847;DHT22;25517;52.422;10.782;2023-08-21T14:12:27;29.80;76.60
39847;DHT22;25517;52.422;10.782;2023-08-21T14:14:52;29.80;74.30
39847;DHT22;25517;52.422;10.782;2023-08-21T14:17:18;29.80;74.60
39847;DHT22;25517;52.422;10.782;2023-08-21T14:19:43;29.90;75.10
39847;DHT22;25517;52.422;10.782;2023-08-21T14:22:09;29.70;73.30
39847;DHT22;25517;52.422;10.782;2023-08-21T14:24:34;29.70;72.80
39847;DHT22;25517;52.422;10.782;2023-08-21T14:27:00;29.60;71.70
39847;DHT22;25517;52.422;10.782;2023-08-21T14:29:25;29.50;74.90
39847;DHT22;25517;52.422;10.782;2023-08-21T14:31:51;29.50;73.80
39847;DHT22;25517;52.422;10.782;2023-08-21T14:34:21;29.30;74.10
39847;DHT22;25517;52.422;10.782;2023-08-21T14:36:50;29.40;74.20
39847;DHT22;25517;52.422;10.782;2023-08-21T14:39:15;29.20;74.40
39847;DHT22;25517;52.422;10.782;2023-08-21T14:41:42;29.10;75.20
39847;DHT22;25517;52.422;10.782;2023-08-21T14:44:08;29.30;76.10
39847;DHT22;25517;52.422;10.782;2023-08-21T14:46:33;29.20;75.80
39847;DHT22;25517;52.422;10.782;2023-08-21T14:48:59;29.20;73.30
39847;DHT22;25517;52.422;10.782;2023-08-21T14:51:25;29.00;75.40
39847;DHT22;25517;52.422;10.782;2023-08-21T14:53:51;28.80;75.60
39847;DHT22;25517;52.422;10.782;2023-08-21T14:56:16;28.80;79.40
39847;DHT22;25517;52.422;10.782;2023-08-21T14:58:42;28.70;78.70
39847;DHT22;25517;52.422;10.782;2023-08-21T15:01:09;28.70;78.80
39847;DHT22;25517;52.422;10.782;2023-08-21T15:03:36;28.70;78.70
39847;DHT22;25517;52.422;10.782;2023-08-21T15:06:01;28.60;75.60
39847;DHT22;25517;52.422;10.782;2023-08-21T15:08:28;28.60;78.90
39847;DHT22;25517;52.422;10.782;2023-08-21T15:10:53;28.70;76.70
39847;DHT22;25517;52.422;10.782;2023-08-21T15:13:19;28.60;78.40
39847;DHT22;25517;52.422;10.782;2023-08-21T15:15:44;28.60;77.50